Time;durP1;ratioP1;P1;durP2;ratioP2;P2;SDS_P1;SDS_P2;PMS_P1;PMS_P2;Temp;Humidity;BMP_temperature;BMP_pressure;BME280_temperature;BME280_humidity;BME280_pressure;Samples;Min_cycle;Max_cycle;Signal;HPM_P1;HPM_P2
2021/01/17 07:51:46;;;;;;;39.87;20.13;;;0.70;98.10;;;;;;5604933;23;19931;-78
2021/01/17 07:54:22;;;;;;;38.05;19.85;;;0.70;98.20;;;;;;4900872;29;20782;-78
2021/01/17 07:56:50;;;;;;;36.90;19.27;;;0.70;98.40;;;;;;4916731;29;20055;-81
2021/01/17 07:59:25;;;;;;;34.97;19.30;;;0.70;98.30;;;;;;4916381;29;20047;-81
2021/01/17 08:01:52;;;;;;;;;;;0.70;98.40;;;;;;4919635;29;20052;-82
2021/01/17 08:04:30;;;;;;;37.50;19.60;;;0.70;98.40;;;;;;4910505;29;19924;-83
2021/01/17 08:06:59;;;;;;;37.97;20.52;;;0.70;98.50;;;;;;4921264;29;20052;-83
2021/01/17 08:09:49;;;;;;;37.83;19.98;;;0.70;98.90;;;;;;4926339;29;20037;-82
2021/01/17 08:12:35;;;;;;;34.53;19.02;;;0.90;98.50;;;;;;4922311;29;20048;-83
2021/01/17 08:15:22;;;;;;;36.30;19.70;;;0.90;98.70;;;;;;4932070;29;20032;-80
2021/01/17 08:17:50;;;;;;;35.85;19.77;;;1.00;98.50;;;;;;4914581;29;20052;-81
2021/01/17 08:20:32;;;;;;;33.72;18.92;;;1.00;98.30;;;;;;4920595;29;20092;-80
2021/01/17 08:23:11;;;;;;;34.40;19.73;;;0.90;98.80;;;;;;4924737;29;20056;-80
2021/01/17 08:25:57;;;;;;;37.50;19.75;;;1.00;98.60;;;;;;4923296;29;20063;-82
2021/01/17 08:28:38;;;;;;;36.33;20.65;;;1.10;98.20;;;;;;4928420;29;20100;-81
2021/01/17 08:31:42;;;;;;;59.33;29.90;;;1.10;98.10;;;;;;4923146;29;20048;-82
2021/01/17 08:34:24;;;;;;;63.13;31.83;;;1.20;97.90;;;;;;4922937;29;20065;-84
2021/01/17 08:36:50;;;;;;;40.03;21.88;;;1.30;97.70;;;;;;4934501;29;20103;-84
2021/01/17 08:39:43;;;;;;;38.22;20.15;;;1.30;97.50;;;;;;4940625;29;20466;-82
2021/01/17 08:42:30;;;;;;;37.08;20.00;;;1.40;97.40;;;;;;4897341;29;20048;-81
2021/01/17 08:44:57;;;;;;;39.95;21.25;;;1.40;97.40;;;;;;4895258;29;20055;-82
2021/01/17 08:47:25;;;;;;;36.05;20.35;;;1.50;97.40;;;;;;4917704;29;20093;-83
2021/01/17 08:49:53;;;;;;;43.97;22.23;;;1.50;97.20;;;;;;4917168;29;20146;-81
2021/01/17 08:52:27;;;;;;;37.97;21.10;;;1.50;97.30;;;;;;4916013;29;20125;-82
2021/01/17 08:54:54;;;;;;;40.33;22.30;;;1.40;97.30;;;;;;4915648;29;20083;-82
2021/01/17 08:57:38;;;;;;;36.78;21.55;;;1.40;97.40;;;;;;4917487;29;20079;-83
2021/01/17 09:00:09;;;;;;;43.63;23.30;;;1.50;97.40;;;;;;4889938;29;20048;-80
2021/01/17 09:02:37;;;;;;;39.75;22.33;;;1.50;97.40;;;;;;4916261;29;20108;-80
2021/01/17 09:05:05;;;;;;;41.45;22.95;;;1.50;97.30;;;;;;4922217;29;20079;-80
2021/01/17 09:07:37;;;;;;;43.75;24.67;;;1.50;97.40;;;;;;4917349;29;20116;-83
2021/01/17 09:10:08;;;;;;;40.60;22.30;;;1.50;97.50;;;;;;4930374;29;20040;-80
2021/01/17 09:12:36;;;;;;;38.58;21.13;;;1.50;97.60;;;;;;4917592;29;20047;-79
2021/01/17 09:15:18;;;;;;;42.03;21.67;;;1.30;98.00;;;;;;4904700;29;20040;-81
2021/01/17 09:17:57;;;;;;;37.08;19.45;;;1.10;98.30;;;;;;4915888;29;20055;-79
2021/01/17 09:20:26;;;;;;;40.33;20.80;;;1.10;98.40;;;;;;4919237;29;20044;-82
2021/01/17 09:22:54;;;;;;;41.10;21.58;;;1.10;98.40;;;;;;4921898;29;20060;-80
2021/01/17 09:25:22;;;;;;;38.08;20.85;;;1.10;98.30;;;;;;4926558;29;20225;-80
2021/01/17 09:27:50;;;;;;;43.28;21.48;;;1.20;98.30;;;;;;4926417;29;20139;-80
2021/01/17 09:30:18;;;;;;;38.80;21.45;;;1.20;98.60;;;;;;4922952;29;20077;-81
2021/01/17 09:32:45;;;;;;;36.80;20.17;;;1.10;98.30;;;;;;4919968;29;20084;-81
2021/01/17 09:35:12;;;;;;;38.85;21.27;;;1.00;98.40;;;;;;4929625;29;20096;-82
2021/01/17 09:37:39;;;;;;;38.40;20.77;;;1.00;98.60;;;;;;4937350;29;20125;-81
2021/01/17 09:40:07;;;;;;;41.67;21.98;;;1.00;98.80;;;;;;4927150;29;20087;-81
2021/01/17 09:42:36;;;;;;;40.17;20.10;;;1.00;99.10;;;;;;4905069;29;20052;-80
2021/01/17 09:45:07;;;;;;;38.30;19.70;;;1.00;99.10;;;;;;4907712;29;20052;-79
2021/01/17 09:47:37;;;;;;;39.83;20.75;;;1.00;99.20;;;;;;4918286;29;20083;-78
2021/01/17 09:50:09;;;;;;;37.15;19.65;;;1.10;99.30;;;;;;4904354;29;20040;-80
2021/01/17 09:52:39;;;;;;;34.60;19.23;;;1.10;99.10;;;;;;4898153;29;20060;-80
2021/01/17 09:55:09;;;;;;;34.53;18.60;;;1.20;99.10;;;;;;4909903;29;20092;-80
2021/01/17 09:57:39;;;;;;;30.83;17.20;;;1.30;99.10;;;;;;4898303;29;20084;-81
2021/01/17 10:00:10;;;;;;;36.00;19.17;;;1.30;99.30;;;;;;4906004;29;20147;-80
2021/01/17 10:02:37;;;;;;;32.90;17.95;;;1.30;99.30;;;;;;4902676;29;20196;-80
2021/01/17 10:05:06;;;;;;;33.65;18.40;;;1.30;99.40;;;;;;4898945;29;20044;-80
2021/01/17 10:07:32;;;;;;;31.33;17.83;;;1.40;99.60;;;;;;4906730;29;20052;-80
2021/01/17 10:09:59;;;;;;;34.63;19.10;;;1.50;99.40;;;;;;4915137;29;20470;-80
2021/01/17 10:12:26;;;;;;;31.98;17.20;;;1.50;99.40;;;;;;4904277;29;20108;-79
2021/01/17 10:14:53;;;;;;;27.13;15.52;;;1.70;99.10;;;;;;4922808;29;20112;-80
2021/01/17 10:17:20;;;;;;;30.73;16.33;;;1.80;98.60;;;;;;4932176;29;20107;-81
2021/01/17 10:19:48;;;;;;;29.52;16.10;;;1.70;98.80;;;;;;4935954;29;20043;-80
2021/01/17 10:22:18;;;;;;;30.15;15.55;;;1.80;99.10;;;;;;4920899;29;20044;-79
2021/01/17 10:24:45;;;;;;;27.33;15.23;;;1.70;99.00;;;;;;4917457;29;20534;-78
2021/01/17 10:27:16;;;;;;;27.23;15.90;;;1.70;99.00;;;;;;4906896;29;20505;-77
2021/01/17 10:29:43;;;;;;;29.77;16.02;;;1.60;99.30;;;;;;4913157;29;20056;-78
2021/01/17 10:32:14;;;;;;;28.52;15.90;;;1.50;99.60;;;;;;4907533;29;20132;-79
2021/01/17 10:34:44;;;;;;;30.98;16.38;;;1.50;99.70;;;;;;4902364;29;20048;-78
2021/01/17 10:37:13;;;;;;;26.55;15.02;;;1.70;99.80;;;;;;4911201;29;20095;-78
2021/01/17 10:39:41;;;;;;;29.35;15.52;;;1.80;99.50;;;;;;4899698;29;20139;-77
2021/01/17 10:42:14;;;;;;;24.15;14.27;;;2.00;99.40;;;;;;4881600;29;20045;-78
2021/01/17 10:44:52;;;;;;;26.63;14.38;;;1.90;99.20;;;;;;4905286;29;20054;-79
2021/01/17 10:47:46;;;;;;;27.58;15.73;;;1.90;98.80;;;;;;4901981;29;20087;-79
2021/01/17 10:50:17;;;;;;;27.08;15.35;;;1.90;98.90;;;;;;4901714;29;20058;-79
2021/01/17 10:52:58;;;;;;;27.15;15.07;;;2.00;99.50;;;;;;4920645;29;20054;-80
2021/01/17 10:55:31;;;;;;;29.10;15.45;;;1.90;99.50;;;;;;4915238;29;20048;-79
2021/01/17 10:57:58;;;;;;;33.45;17.13;;;1.90;99.50;;;;;;4916318;29;20684;-79
2021/01/17 11:00:24;;;;;;;27.23;14.98;;;1.90;99.70;;;;;;4917121;29;20051;-78
2021/01/17 11:03:04;;;;;;;27.33;15.80;;;2.10;99.70;;;;;;4907674;29;20550;-79
2021/01/17 11:05:31;;;;;;;26.80;15.48;;;2.20;99.50;;;;;;4911883;29;20421;-80
2021/01/17 11:07:57;;;;;;;23.98;14.65;;;2.30;99.20;;;;;;4908249;29;20790;-81
2021/01/17 11:10:26;;;;;;;21.88;12.63;;;2.40;98.80;;;;;;4909045;29;20138;-81
2021/01/17 11:12:52;;;;;;;24.83;14.20;;;2.40;98.70;;;;;;4910906;29;20422;-80
2021/01/17 11:15:21;;;;;;;27.17;14.82;;;2.40;98.80;;;;;;4916802;29;20469;-80
2021/01/17 11:17:54;;;;;;;24.60;13.63;;;2.40;98.70;;;;;;4922124;29;20183;-80
2021/01/17 11:20:28;;;;;;;26.17;14.32;;;2.40;99.00;;;;;;4914960;29;20067;-81
2021/01/17 11:23:05;;;;;;;24.08;13.73;;;2.30;99.20;;;;;;4905721;29;20136;-79
2021/01/17 11:25:33;;;;;;;25.02;14.27;;;2.30;99.40;;;;;;4923663;29;20055;-79
2021/01/17 11:28:03;;;;;;;22.27;14.02;;;2.40;99.60;;;;;;4912393;29;20049;-80
2021/01/17 11:30:32;;;;;;;22.90;14.32;;;2.40;99.40;;;;;;4909768;29;20136;-80
2021/01/17 11:33:10;;;;;;;24.02;14.02;;;2.60;99.00;;;;;;4926520;29;20099;-79
2021/01/17 11:35:40;;;;;;;25.08;14.82;;;2.60;99.10;;;;;;4922029;29;20136;-79
2021/01/17 11:38:08;;;;;;;23.95;13.52;;;2.70;98.80;;;;;;4915665;29;20139;-80
2021/01/17 11:40:36;;;;;;;23.92;13.88;;;2.70;98.90;;;;;;4909969;29;20126;-79
2021/01/17 11:43:08;;;;;;;22.15;13.32;;;2.90;99.00;;;;;;4915975;29;20140;-79
2021/01/17 11:45:43;;;;;;;22.00;13.20;;;2.70;98.90;;;;;;4915915;29;20108;-79
2021/01/17 11:48:10;;;;;;;;;;;2.70;99.10;;;;;;4914993;29;20084;-79
2021/01/17 11:50:43;;;;;;;24.23;13.32;;;2.80;99.30;;;;;;4915826;29;19941;-80
2021/01/17 11:55:53;;;;;;;22.98;12.60;;;2.80;99.40;;;;;;5317964;23;20310;-83
2021/01/17 12:06:12;;;;;;;22.42;13.38;;;2.80;99.50;;;;;;4513662;27;20060;-83
2021/01/17 12:08:54;;;;;;;25.60;14.18;;;2.90;99.70;;;;;;4932845;29;20138;-81
2021/01/17 12:11:40;;;;;;;25.48;14.93;;;2.90;99.60;;;;;;4921444;29;20064;-81
2021/01/17 12:14:10;;;;;;;27.95;15.45;;;2.80;99.50;;;;;;4916245;29;20053;-81
2021/01/17 12:16:39;;;;;;;24.13;14.52;;;2.80;99.60;;;;;;4917304;29;20048;-81
2021/01/17 12:19:08;;;;;;;25.25;14.30;;;2.70;99.70;;;;;;4906988;29;20144;-80
2021/01/17 12:21:36;;;;;;;25.30;13.50;;;2.70;99.90;;;;;;4922050;29;20048;-80
2021/01/17 12:24:10;;;;;;;27.23;14.73;;;2.60;99.90;;;;;;4917178;29;20055;-80
2021/01/17 12:26:36;;;;;;;36.10;19.52;;;2.60;99.90;;;;;;4918204;29;20053;-81
2021/01/17 12:29:04;;;;;;;20.80;11.85;;;2.60;99.90;;;;;;4913327;29;20151;-80
2021/01/17 12:31:31;;;;;;;17.45;10.07;;;2.70;99.90;;;;;;4910263;29;20056;-81
2021/01/17 12:33:58;;;;;;;18.45;11.55;;;2.80;99.90;;;;;;4922962;29;20103;-80
2021/01/17 12:41:48;;;;;;;17.25;9.98;;;2.80;99.80;;;;;;5400262;23;20064;-81
2021/01/17 12:44:16;;;;;;;17.30;9.88;;;3.00;99.70;;;;;;4935197;29;20036;-83
2021/01/17 12:46:45;;;;;;;15.65;9.43;;;2.90;99.60;;;;;;4921534;29;20047;-83
2021/01/17 12:49:14;;;;;;;15.60;9.48;;;2.90;99.30;;;;;;4918393;29;20064;-82
2021/01/17 12:51:47;;;;;;;18.02;8.95;;;3.00;99.30;;;;;;4915348;29;20056;-83
2021/01/17 12:54:19;;;;;;;15.95;9.63;;;3.10;99.10;;;;;;4928402;29;20056;-82
2021/01/17 12:56:48;;;;;;;16.60;9.73;;;3.00;99.10;;;;;;4905417;29;20052;-82
2021/01/17 12:59:16;;;;;;;15.20;9.43;;;2.90;99.30;;;;;;4935935;29;20078;-82
2021/01/17 13:01:46;;;;;;;17.88;10.27;;;2.90;99.60;;;;;;4934451;29;20048;-82
2021/01/17 13:04:20;;;;;;;19.05;11.35;;;2.80;99.70;;;;;;4928774;29;20059;-83
2021/01/17 13:06:47;;;;;;;15.70;9.73;;;2.90;99.90;;;;;;4917778;29;20040;-83
2021/01/17 13:09:14;;;;;;;16.65;9.65;;;2.80;99.50;;;;;;4918671;29;20049;-81
2021/01/17 13:32:26;;;;;;;18.58;10.02;;;2.90;99.80;;;;;;5623139;23;20116;-82
2021/01/17 13:34:54;;;;;;;15.50;8.50;;;2.90;99.90;;;;;;4937922;29;20064;-81
2021/01/17 13:39:56;;;;;;;14.98;9.02;;;3.00;99.70;;;;;;5268043;23;20076;-83
2021/01/17 13:42:23;;;;;;;15.32;8.38;;;3.20;99.60;;;;;;4936931;29;20456;-83
2021/01/17 13:44:51;;;;;;;15.52;9.45;;;3.10;99.50;;;;;;4938229;29;20080;-82
2021/01/17 13:47:21;;;;;;;15.38;9.05;;;3.20;99.50;;;;;;4930540;29;20029;-83
2021/01/17 14:07:57;;;;;;;15.48;9.18;;;3.20;99.20;;;;;;4900561;27;20064;-83
2021/01/17 14:10:26;;;;;;;13.00;7.65;;;3.10;99.40;;;;;;4939418;29;20032;-83
2021/01/17 14:12:54;;;;;;;13.60;8.18;;;3.20;99.50;;;;;;4940316;29;20553;-83
2021/01/17 14:21:01;;;;;;;13.95;9.07;;;3.20;99.50;;;;;;5285641;23;20041;-82
2021/01/17 14:23:29;;;;;;;12.75;8.32;;;3.20;99.40;;;;;;4922225;29;20036;-83
2021/01/17 14:25:57;;;;;;;14.85;8.15;;;3.20;99.40;;;;;;4920842;29;20037;-83
2021/01/17 14:28:24;;;;;;;15.65;9.05;;;3.10;99.60;;;;;;4919671;29;20037;-80
2021/01/17 14:30:53;;;;;;;14.75;8.73;;;3.30;99.60;;;;;;4915563;29;20084;-80
2021/01/17 14:33:20;;;;;;;13.95;8.50;;;3.30;99.60;;;;;;4917949;29;20089;-83
2021/01/17 14:35:47;;;;;;;16.35;8.90;;;3.40;99.50;;;;;;4918833;29;20053;-84
2021/01/17 14:38:14;;;;;;;12.52;7.97;;;3.40;99.40;;;;;;4916720;29;20036;-82
2021/01/17 14:40:42;;;;;;;14.45;9.05;;;3.40;99.20;;;;;;4916267;29;20060;-82
2021/01/17 14:43:10;;;;;;;14.10;8.88;;;3.30;99.30;;;;;;4918302;29;20056;-82
2021/01/17 14:45:37;;;;;;;15.02;8.82;;;3.40;99.30;;;;;;4916110;29;20060;-82
2021/01/17 14:48:05;;;;;;;14.32;8.95;;;3.40;99.40;;;;;;4917111;29;20033;-82
2021/01/17 14:50:32;;;;;;;13.30;8.50;;;3.40;99.30;;;;;;4922146;29;20064;-83
2021/01/17 14:52:59;;;;;;;13.32;8.52;;;3.50;99.20;;;;;;4921064;29;20057;-81
2021/01/17 14:55:26;;;;;;;13.98;8.35;;;3.50;99.30;;;;;;4922008;29;20033;-83
2021/01/17 14:57:54;;;;;;;14.85;8.63;;;3.50;99.30;;;;;;4917665;29;20095;-83
2021/01/17 15:00:23;;;;;;;13.43;8.25;;;3.40;99.40;;;;;;4908792;29;20068;-81
2021/01/17 15:02:50;;;;;;;13.35;8.20;;;3.40;99.50;;;;;;4921889;29;20072;-80
2021/01/17 15:05:16;;;;;;;15.45;8.70;;;3.40;99.40;;;;;;4914723;29;20072;-82
2021/01/17 15:07:43;;;;;;;16.20;9.13;;;3.40;99.30;;;;;;4925782;29;20056;-80
2021/01/17 15:10:11;;;;;;;14.43;8.10;;;3.40;99.30;;;;;;4929024;29;20135;-80
2021/01/17 15:12:37;;;;;;;13.40;8.77;;;3.40;99.40;;;;;;4928562;29;20080;-81
2021/01/17 15:15:07;;;;;;;13.57;8.68;;;3.40;99.20;;;;;;4925712;29;20043;-80
2021/01/17 15:17:35;;;;;;;15.32;8.98;;;3.30;99.40;;;;;;4924333;29;20075;-81
2021/01/17 15:20:03;;;;;;;14.65;9.45;;;3.40;99.50;;;;;;4917628;29;20083;-80
2021/01/17 15:22:29;;;;;;;12.85;8.45;;;3.30;99.60;;;;;;4940390;29;20045;-80
2021/01/17 15:24:56;;;;;;;12.45;7.70;;;3.40;99.60;;;;;;4905701;29;20106;-81
2021/01/17 15:27:22;;;;;;;14.90;8.50;;;3.30;99.40;;;;;;4897122;29;20147;-80
2021/01/17 15:29:50;;;;;;;15.00;9.25;;;3.30;99.50;;;;;;4887352;29;20127;-79
2021/01/17 15:32:18;;;;;;;15.45;9.57;;;3.30;99.60;;;;;;4887142;29;20059;-81
2021/01/17 15:34:45;;;;;;;16.90;9.73;;;3.20;99.80;;;;;;4895551;29;20052;-81
2021/01/17 15:37:12;;;;;;;17.40;9.00;;;3.20;99.90;;;;;;4940328;29;20554;-81
2021/01/17 15:39:39;;;;;;;15.18;9.15;;;3.20;99.90;;;;;;4904102;29;20044;-84
2021/01/17 15:44:47;;;;;;;14.57;9.05;;;3.00;99.90;;;;;;5239447;23;20103;-83
2021/01/17 15:47:17;;;;;;;15.55;8.88;;;3.00;99.90;;;;;;4941391;29;20059;-84
2021/01/17 16:02:49;;;;;;;17.83;10.98;;;3.00;99.90;;;;;;5077369;23;20052;-84
2021/01/17 16:05:15;;;;;;;16.63;10.33;;;3.00;99.90;;;;;;5180983;23;20040;-81
2021/01/17 16:08:10;;;;;;;19.02;11.10;;;3.00;99.90;;;;;;4935501;29;20048;-78
2021/01/17 16:10:37;;;;;;;17.65;10.55;;;3.10;99.90;;;;;;4919520;29;20148;-81
2021/01/17 16:18:38;;;;;;;19.30;11.88;;;3.00;99.90;;;;;;4957703;23;20044;-82
2021/01/17 16:21:07;;;;;;;19.30;11.52;;;3.00;99.90;;;;;;4929762;29;20059;-80
2021/01/17 16:26:09;;;;;;;17.52;11.27;;;2.90;99.90;;;;;;5002425;23;20044;-83
2021/01/17 16:28:50;;;;;;;19.23;12.25;;;2.90;99.90;;;;;;4942048;29;20052;-82
2021/01/17 16:33:53;;;;;;;19.13;12.38;;;3.00;99.90;;;;;;5655978;23;20043;-81
2021/01/17 16:36:22;;;;;;;18.17;11.40;;;3.10;99.90;;;;;;4923584;29;20056;-82
2021/01/17 16:41:37;;;;;;;20.80;12.52;;;3.10;99.90;;;;;;5478305;23;20040;-82
2021/01/17 16:46:40;;;;;;;21.70;12.57;;;3.20;99.90;;;;;;4962934;23;20055;-83
2021/01/17 16:49:15;;;;;;;19.90;11.77;;;3.20;99.90;;;;;;4939823;29;20043;-82
2021/01/17 16:57:27;;;;;;;20.73;12.37;;;3.30;99.90;;;;;;4898834;23;20056;-82
2021/01/17 17:02:34;;;;;;;26.65;15.10;;;3.20;99.90;;;;;;5025604;23;20061;-81
2021/01/17 17:05:07;;;;;;;53.45;24.33;;;3.10;99.90;;;;;;4968823;28;20086;-80
2021/01/17 17:07:36;;;;;;;23.55;13.80;;;3.20;99.90;;;;;;4980011;28;20055;-80
2021/01/17 17:10:23;;;;;;;21.73;13.13;;;3.10;99.90;;;;;;4964562;28;20051;-83
2021/01/17 17:13:29;;;;;;;21.38;12.82;;;3.10;99.90;;;;;;5284618;23;20062;-83
2021/01/17 17:15:57;;;;;;;22.85;13.32;;;3.10;99.90;;;;;;4999778;28;20494;-83
2021/01/17 17:18:24;;;;;;;20.48;12.52;;;3.00;99.90;;;;;;5007698;28;20154;-81
2021/01/17 17:20:52;;;;;;;19.23;11.50;;;3.10;99.90;;;;;;4974419;28;20073;-81
2021/01/17 17:23:19;;;;;;;18.00;11.27;;;3.00;99.90;;;;;;4979670;28;20084;-81
2021/01/17 17:25:46;;;;;;;19.20;11.38;;;3.10;99.90;;;;;;4998127;28;20054;-81
2021/01/17 17:28:13;;;;;;;18.38;10.57;;;3.10;99.90;;;;;;4991275;28;20046;-81
2021/01/17 17:30:43;;;;;;;15.68;9.82;;;3.10;99.90;;;;;;4991399;28;20045;-82
2021/01/17 17:33:10;;;;;;;17.42;10.88;;;3.10;99.90;;;;;;5005210;28;20094;-81
2021/01/17 17:35:41;;;;;;;18.50;11.05;;;3.10;99.90;;;;;;5005537;28;20085;-79
2021/01/17 17:38:23;;;;;;;18.13;10.57;;;3.10;99.90;;;;;;5003596;28;20050;-81
2021/01/17 17:40:59;;;;;;;17.98;10.25;;;3.10;99.90;;;;;;5009591;28;20054;-82
2021/01/17 17:43:26;;;;;;;15.35;9.73;;;3.10;99.90;;;;;;5004530;28;20053;-81
2021/01/17 17:45:58;;;;;;;14.82;9.70;;;3.10;99.90;;;;;;4994984;28;20059;-82
2021/01/17 17:48:26;;;;;;;17.45;10.20;;;3.20;99.90;;;;;;4987864;28;20078;-82
2021/01/17 17:50:53;;;;;;;16.80;10.30;;;3.10;99.90;;;;;;4988134;28;20526;-81
2021/01/17 17:53:24;;;;;;;18.08;10.52;;;3.10;99.90;;;;;;4973043;28;20054;-81
2021/01/17 17:55:56;;;;;;;18.48;11.20;;;3.00;99.90;;;;;;4991691;28;20070;-82
2021/01/17 17:58:25;;;;;;;19.35;11.02;;;3.10;99.90;;;;;;4978396;28;20041;-81
2021/01/17 18:00:55;;;;;;;21.40;12.35;;;3.00;99.90;;;;;;4976758;28;20090;-82
2021/01/17 18:03:34;;;;;;;21.55;13.45;;;2.90;99.90;;;;;;4995186;28;20031;-82
2021/01/17 18:06:06;;;;;;;21.00;12.88;;;2.90;99.90;;;;;;5000770;28;20046;-81
2021/01/17 18:08:37;;;;;;;20.55;12.85;;;3.00;99.90;;;;;;5017721;28;20034;-83
2021/01/17 18:41:41;;;;;;;13.03;9.10;;;2.70;99.90;;;;;;5540140;23;20316;-81
2021/01/17 19:04:07;;;;;;;17.85;10.27;;;2.70;99.90;;;;;;5200497;23;20054;-80
2021/01/17 19:06:35;;;;;;;;;;;2.60;99.90;;;;;;5010896;28;20054;-81
2021/01/17 19:09:06;;;;;;;14.80;8.77;;;2.70;99.90;;;;;;4979686;28;19922;-80
2021/01/17 19:11:32;;;;;;;13.82;8.82;;;2.70;99.90;;;;;;4990722;28;20058;-80
2021/01/17 19:13:59;;;;;;;12.57;8.25;;;2.60;99.90;;;;;;4999570;28;20674;-80
2021/01/17 19:16:26;;;;;;;13.05;8.18;;;2.50;99.90;;;;;;4992230;28;20081;-82
2021/01/17 19:18:53;;;;;;;12.07;7.43;;;2.60;99.90;;;;;;4991552;28;20584;-80
2021/01/17 19:21:20;;;;;;;10.10;6.45;;;2.60;99.90;;;;;;4996056;28;20077;-79
2021/01/17 19:23:47;;;;;;;11.45;7.00;;;2.50;99.90;;;;;;4982574;28;20467;-80
2021/01/17 19:26:14;;;;;;;10.32;6.75;;;2.50;99.90;;;;;;4982109;28;20557;-80
2021/01/17 19:28:41;;;;;;;10.25;5.78;;;2.50;99.90;;;;;;4970484;28;20319;-81
2021/01/17 19:31:07;;;;;;;9.98;6.28;;;2.50;99.90;;;;;;4974775;28;20106;-80
2021/01/17 19:33:37;;;;;;;9.77;6.38;;;2.60;99.90;;;;;;4989440;28;20106;-81
2021/01/17 19:36:05;;;;;;;9.05;5.70;;;2.40;99.90;;;;;;5002530;28;20058;-81
2021/01/17 19:38:33;;;;;;;9.75;5.85;;;2.50;99.90;;;;;;4988049;28;20054;-80
2021/01/17 19:41:00;;;;;;;8.63;5.75;;;2.50;99.90;;;;;;4979063;28;20495;-81
2021/01/17 19:43:29;;;;;;;9.07;5.88;;;2.60;99.90;;;;;;4965567;28;20053;-81
2021/01/17 19:45:56;;;;;;;8.30;5.10;;;2.50;99.90;;;;;;4980671;28;20051;-82
2021/01/17 19:48:23;;;;;;;8.63;5.05;;;2.50;99.90;;;;;;4982969;28;20054;-81
2021/01/17 19:50:50;;;;;;;7.78;4.93;;;2.50;99.90;;;;;;4968470;28;20527;-81
2021/01/17 19:53:16;;;;;;;6.97;4.43;;;2.50;99.90;;;;;;4984297;28;20494;-82
2021/01/17 19:55:44;;;;;;;7.78;4.97;;;2.50;99.90;;;;;;4969244;28;20046;-81
2021/01/17 19:58:10;;;;;;;7.55;4.60;;;2.60;99.90;;;;;;4967686;28;20051;-81
2021/01/17 20:00:37;;;;;;;7.68;4.40;;;2.50;99.90;;;;;;4996828;28;20113;-82
2021/01/17 20:03:07;;;;;;;7.03;4.07;;;2.60;99.90;;;;;;4991906;28;20108;-81
2021/01/17 20:05:34;;;;;;;5.93;4.00;;;2.50;99.90;;;;;;4973829;28;20432;-81
2021/01/17 20:08:00;;;;;;;7.40;3.90;;;2.60;99.90;;;;;;4988886;28;20054;-81
2021/01/17 20:10:27;;;;;;;7.10;3.83;;;2.60;99.90;;;;;;4984368;28;20114;-82
2021/01/17 20:12:57;;;;;;;6.18;3.88;;;2.70;99.90;;;;;;4992459;28;20147;-82
2021/01/17 20:15:24;;;;;;;7.15;4.13;;;2.60;99.90;;;;;;4964999;28;20217;-81
2021/01/17 20:17:53;;;;;;;5.95;3.35;;;2.60;99.90;;;;;;4969132;28;20054;-81
2021/01/17 20:20:20;;;;;;;8.05;4.47;;;2.60;99.90;;;;;;4990023;28;20058;-81
2021/01/17 20:22:48;;;;;;;7.30;3.50;;;2.60;99.90;;;;;;4989400;28;20097;-80
2021/01/17 20:25:14;;;;;;;6.15;3.60;;;2.60;99.90;;;;;;4953382;28;20058;-80
2021/01/17 20:27:41;;;;;;;5.47;3.40;;;2.50;99.90;;;;;;4988512;28;20118;-81
2021/01/17 20:30:11;;;;;;;7.32;3.95;;;2.50;99.90;;;;;;5014684;28;20109;-81
2021/01/17 20:32:38;;;;;;;6.20;3.60;;;2.50;99.90;;;;;;4993913;28;20141;-81
2021/01/17 20:35:06;;;;;;;7.65;3.58;;;2.60;99.90;;;;;;5009931;28;20074;-81
2021/01/17 20:37:33;;;;;;;6.15;3.65;;;2.50;99.90;;;;;;4974259;28;20051;-81
2021/01/17 20:39:59;;;;;;;6.88;3.22;;;2.70;99.90;;;;;;5010970;28;20054;-81
2021/01/17 20:42:26;;;;;;;6.85;3.50;;;2.60;99.90;;;;;;5000472;28;20101;-81
2021/01/17 20:44:52;;;;;;;5.97;3.45;;;2.60;99.90;;;;;;5011285;28;20033;-81
2021/01/17 20:47:20;;;;;;;9.10;5.63;;;2.60;99.90;;;;;;5008143;28;20082;-81
2021/01/17 20:49:47;;;;;;;10.50;5.30;;;2.70;99.90;;;;;;5007924;28;20062;-80
2021/01/17 20:52:18;;;;;;;7.00;3.60;;;2.80;99.90;;;;;;4992578;28;20118;-81
2021/01/17 20:54:45;;;;;;;6.38;3.38;;;2.70;99.90;;;;;;4977355;28;20065;-80
2021/01/17 20:57:13;;;;;;;6.15;3.88;;;2.70;99.90;;;;;;5011910;28;20058;-81
2021/01/17 20:59:41;;;;;;;12.07;6.80;;;2.60;99.90;;;;;;5009610;28;20061;-81
2021/01/17 21:02:08;;;;;;;11.65;6.22;;;2.60;99.90;;;;;;5008323;28;20074;-83
2021/01/17 21:04:35;;;;;;;8.82;4.75;;;2.60;99.90;;;;;;4999514;28;20070;-82
2021/01/17 21:07:02;;;;;;;6.68;3.50;;;2.50;99.90;;;;;;4981157;28;20111;-81
2021/01/17 21:09:29;;;;;;;6.15;3.60;;;2.60;99.90;;;;;;4968155;29;20047;-80
2021/01/17 21:11:56;;;;;;;6.30;3.85;;;2.60;99.90;;;;;;4965237;28;20047;-80
2021/01/17 21:14:22;;;;;;;6.28;3.60;;;2.60;99.90;;;;;;4972881;28;20054;-80
2021/01/17 21:16:49;;;;;;;7.10;3.95;;;2.70;99.90;;;;;;4985732;28;20107;-80
2021/01/17 21:19:16;;;;;;;6.93;3.75;;;2.60;99.90;;;;;;4988683;28;20058;-80
2021/01/17 21:21:43;;;;;;;6.30;3.88;;;2.60;99.90;;;;;;4972511;28;20067;-81
2021/01/17 21:24:11;;;;;;;6.05;3.80;;;2.70;99.90;;;;;;4966767;29;20062;-80
2021/01/17 21:26:38;;;;;;;6.60;3.78;;;2.60;99.90;;;;;;4964929;28;20122;-81
2021/01/17 21:29:05;;;;;;;7.75;3.92;;;2.60;99.90;;;;;;4968303;29;20051;-81
2021/01/17 21:31:32;;;;;;;8.05;4.28;;;2.50;99.90;;;;;;4952453;29;20075;-83
2021/01/17 21:33:59;;;;;;;8.50;4.25;;;2.60;99.90;;;;;;4990272;28;20042;-82
2021/01/17 21:36:26;;;;;;;8.27;4.28;;;2.50;99.90;;;;;;4973686;29;20485;-82
2021/01/17 21:38:54;;;;;;;6.85;4.20;;;2.40;99.90;;;;;;4972510;28;20039;-81
2021/01/17 21:41:21;;;;;;;8.63;4.60;;;2.40;99.90;;;;;;4979781;28;20051;-82
2021/01/17 21:43:48;;;;;;;8.20;5.00;;;2.60;99.90;;;;;;4976533;29;20058;-81
2021/01/17 21:46:16;;;;;;;7.82;4.47;;;2.40;99.90;;;;;;4978387;28;20066;-82
2021/01/17 21:48:43;;;;;;;7.28;4.05;;;2.50;99.90;;;;;;4990671;28;20067;-82
2021/01/17 21:51:10;;;;;;;7.82;4.50;;;2.60;99.90;;;;;;4983777;28;20050;-82
2021/01/17 21:53:37;;;;;;;8.27;4.10;;;2.70;99.90;;;;;;4989683;28;20066;-81
2021/01/17 21:56:05;;;;;;;6.78;4.20;;;2.70;99.90;;;;;;4989080;28;20103;-81
2021/01/17 21:58:32;;;;;;;6.97;4.20;;;2.50;99.90;;;;;;4989697;28;20097;-80
2021/01/17 22:00:59;;;;;;;7.38;4.40;;;2.60;99.90;;;;;;4992809;28;20074;-84
2021/01/17 22:03:26;;;;;;;8.25;4.25;;;2.60;99.90;;;;;;4993329;28;20061;-84
2021/01/17 22:05:53;;;;;;;6.72;3.92;;;2.60;99.90;;;;;;4997142;28;20121;-83
2021/01/17 22:08:21;;;;;;;7.85;3.95;;;2.60;99.90;;;;;;5013838;28;20073;-84
2021/01/17 22:10:47;;;;;;;7.47;4.03;;;2.40;99.90;;;;;;5014604;28;20507;-82
2021/01/17 22:13:16;;;;;;;7.35;4.30;;;2.60;99.90;;;;;;4995853;28;20068;-83
2021/01/17 22:15:43;;;;;;;6.53;3.92;;;2.60;99.90;;;;;;5010115;28;20051;-82
2021/01/17 22:18:10;;;;;;;7.30;4.25;;;2.60;99.90;;;;;;4993504;28;20051;-81
2021/01/17 22:20:37;;;;;;;6.88;3.90;;;2.60;99.90;;;;;;4975390;28;20030;-82
2021/01/17 22:23:04;;;;;;;7.45;3.90;;;2.60;99.90;;;;;;4969455;28;20142;-82
2021/01/17 22:25:31;;;;;;;8.15;4.68;;;2.50;99.90;;;;;;4997973;28;20070;-83
2021/01/17 22:27:58;;;;;;;8.68;4.75;;;2.40;99.90;;;;;;4977162;28;20488;-82
2021/01/17 22:30:26;;;;;;;7.65;4.63;;;2.50;99.90;;;;;;4993111;28;20034;-82
2021/01/17 22:32:53;;;;;;;6.72;3.95;;;2.50;99.90;;;;;;4998943;28;20035;-83
2021/01/17 22:35:20;;;;;;;7.55;4.00;;;2.60;99.90;;;;;;4998832;28;20035;-82
2021/01/17 22:37:49;;;;;;;7.53;3.90;;;2.50;99.90;;;;;;4999126;28;20038;-84
2021/01/17 22:40:16;;;;;;;8.15;4.35;;;2.40;99.90;;;;;;4968850;28;20039;-83
2021/01/17 22:42:43;;;;;;;8.48;4.40;;;2.50;99.90;;;;;;5016468;28;20034;-83
2021/01/17 22:45:13;;;;;;;9.40;4.20;;;2.60;99.90;;;;;;4999646;28;20039;-83
2021/01/17 22:47:41;;;;;;;7.10;4.07;;;2.60;99.90;;;;;;4998409;28;20042;-84
2021/01/17 22:50:11;;;;;;;7.63;3.97;;;2.40;99.90;;;;;;4999122;28;20066;-83
2021/01/17 22:52:39;;;;;;;7.57;4.20;;;2.60;99.90;;;;;;4993643;28;20047;-81
2021/01/17 22:55:08;;;;;;;6.30;3.75;;;2.50;99.90;;;;;;4978188;28;20045;-82
2021/01/17 22:57:36;;;;;;;7.65;4.20;;;2.40;99.90;;;;;;4996525;28;20051;-82
2021/01/17 23:00:09;;;;;;;7.22;4.60;;;2.50;99.90;;;;;;4992697;28;20062;-81
2021/01/17 23:02:37;;;;;;;6.25;3.75;;;2.50;99.90;;;;;;4974064;28;20054;-81
2021/01/17 23:05:06;;;;;;;7.95;3.90;;;2.70;99.90;;;;;;4990400;28;20488;-82
2021/01/17 23:07:37;;;;;;;6.78;3.90;;;2.50;99.90;;;;;;4985697;28;20058;-81
2021/01/17 23:10:06;;;;;;;6.95;3.85;;;2.60;99.90;;;;;;4989027;28;20073;-81
2021/01/17 23:12:34;;;;;;;6.90;3.72;;;2.60;99.90;;;;;;4978261;28;20054;-83
2021/01/17 23:15:02;;;;;;;6.90;3.55;;;2.50;99.90;;;;;;5005552;28;20054;-83
2021/01/17 23:17:29;;;;;;;7.10;3.90;;;2.50;99.90;;;;;;5005839;28;20042;-82
2021/01/17 23:19:56;;;;;;;6.57;3.70;;;2.60;99.90;;;;;;5009836;28;20061;-82
2021/01/17 23:22:24;;;;;;;8.88;4.00;;;2.70;99.90;;;;;;4996717;28;20050;-83